sensor_id;sensor_type;location;lat;lon;timestamp;P1;durP1;ratioP1;P2;durP2;ratioP2
2996;SDS011;1508;48.744;9.110;2023-02-18T00:01:00;426.27;;;391.00;;
2996;SDS011;1508;48.744;9.110;2023-02-18T00:03:47;86.68;;;78.70;;
2996;SDS011;1508;48.744;9.110;2023-02-18T00:06:33;117.13;;;107.82;;
2996;SDS011;1508;48.744;9.110;2023-02-18T00:09:20;148.67;;;135.67;;
2996;SDS011;1508;48.744;9.110;2023-02-18T00:12:06;539.13;;;501.10;;
2996;SDS011;1508;48.744;9.110;2023-02-18T00:14:52;240.25;;;224.10;;
2996;SDS011;1508;48.744;9.110;2023-02-18T00:17:38;221.88;;;205.95;;
2996;SDS011;1508;48.744;9.110;2023-02-18T00:20:23;285.65;;;268.98;;
2996;SDS011;1508;48.744;9.110;2023-02-18T00:23:09;149.35;;;139.07;;
2996;SDS011;1508;48.744;9.110;2023-02-18T00:26:06;433.00;;;401.92;;
2996;SDS011;1508;48.744;9.110;2023-02-18T00:28:56;96.20;;;87.70;;
2996;SDS011;1508;48.744;9.110;2023-02-18T00:31:42;304.20;;;281.10;;
2996;SDS011;1508;48.744;9.110;2023-02-18T00:34:28;233.10;;;219.38;;
2996;SDS011;1508;48.744;9.110;2023-02-18T00:37:14;247.85;;;232.63;;
2996;SDS011;1508;48.744;9.110;2023-02-18T00:40:00;611.20;;;563.53;;
2996;SDS011;1508;48.744;9.110;2023-02-18T00:42:45;551.50;;;510.63;;
2996;SDS011;1508;48.744;9.110;2023-02-18T00:45:31;348.25;;;325.88;;
2996;SDS011;1508;48.744;9.110;2023-02-18T00:48:17;489.25;;;455.60;;
2996;SDS011;1508;48.744;9.110;2023-02-18T00:51:04;350.27;;;326.83;;
2996;SDS011;1508;48.744;9.110;2023-02-18T00:53:51;759.55;;;703.15;;
2996;SDS011;1508;48.744;9.110;2023-02-18T00:56:37;150.48;;;139.57;;
2996;SDS011;1508;48.744;9.110;2023-02-18T00:59:22;803.50;;;732.78;;
2996;SDS011;1508;48.744;9.110;2023-02-18T01:02:08;236.45;;;222.55;;
2996;SDS011;1508;48.744;9.110;2023-02-18T01:04:54;295.67;;;277.58;;
2996;SDS011;1508;48.744;9.110;2023-02-18T01:07:40;170.07;;;156.95;;
2996;SDS011;1508;48.744;9.110;2023-02-18T01:10:26;643.97;;;590.72;;
2996;SDS011;1508;48.744;9.110;2023-02-18T01:13:12;463.55;;;433.33;;
2996;SDS011;1508;48.744;9.110;2023-02-18T01:15:59;337.90;;;316.45;;
2996;SDS011;1508;48.744;9.110;2023-02-18T01:18:45;389.33;;;360.70;;
2996;SDS011;1508;48.744;9.110;2023-02-18T01:21:31;980.35;;;889.92;;
2996;SDS011;1508;48.744;9.110;2023-02-18T01:24:17;630.83;;;586.60;;
2996;SDS011;1508;48.744;9.110;2023-02-18T01:27:03;289.13;;;272.38;;
2996;SDS011;1508;48.744;9.110;2023-02-18T01:29:49;849.33;;;775.28;;
2996;SDS011;1508;48.744;9.110;2023-02-18T01:32:35;381.38;;;357.00;;
2996;SDS011;1508;48.744;9.110;2023-02-18T01:35:21;762.10;;;699.05;;
2996;SDS011;1508;48.744;9.110;2023-02-18T01:38:07;347.40;;;318.47;;
2996;SDS011;1508;48.744;9.110;2023-02-18T01:40:53;751.80;;;691.47;;
2996;SDS011;1508;48.744;9.110;2023-02-18T01:43:39;308.42;;;291.40;;
2996;SDS011;1508;48.744;9.110;2023-02-18T01:46:25;404.73;;;376.25;;
2996;SDS011;1508;48.744;9.110;2023-02-18T01:49:13;582.40;;;536.85;;
2996;SDS011;1508;48.744;9.110;2023-02-18T01:52:25;301.08;;;282.25;;
2996;SDS011;1508;48.744;9.110;2023-02-18T01:55:11;266.25;;;249.18;;
2996;SDS011;1508;48.744;9.110;2023-02-18T01:57:57;322.98;;;295.42;;
2996;SDS011;1508;48.744;9.110;2023-02-18T02:00:43;381.42;;;357.75;;
2996;SDS011;1508;48.744;9.110;2023-02-18T02:03:28;462.00;;;432.13;;
2996;SDS011;1508;48.744;9.110;2023-02-18T02:06:16;273.02;;;257.35;;
2996;SDS011;1508;48.744;9.110;2023-02-18T02:09:04;328.02;;;304.95;;
2996;SDS011;1508;48.744;9.110;2023-02-18T02:15:12;307.20;;;289.33;;
2996;SDS011;1508;48.744;9.110;2023-02-18T02:18:40;171.32;;;159.82;;
2996;SDS011;1508;48.744;9.110;2023-02-18T02:25:00;194.27;;;182.23;;
2996;SDS011;1508;48.744;9.110;2023-02-18T02:28:14;119.72;;;110.30;;
2996;SDS011;1508;48.744;9.110;2023-02-18T02:43:26;253.32;;;238.82;;
2996;SDS011;1508;48.744;9.110;2023-02-18T02:46:44;763.78;;;683.58;;
2996;SDS011;1508;48.744;9.110;2023-02-18T02:49:36;113.07;;;103.95;;
2996;SDS011;1508;48.744;9.110;2023-02-18T02:52:31;284.00;;;267.80;;
2996;SDS011;1508;48.744;9.110;2023-02-18T02:55:20;302.50;;;283.17;;
2996;SDS011;1508;48.744;9.110;2023-02-18T02:58:07;261.42;;;246.35;;
2996;SDS011;1508;48.744;9.110;2023-02-18T03:01:14;198.88;;;186.25;;
2996;SDS011;1508;48.744;9.110;2023-02-18T03:24:59;139.65;;;129.18;;
2996;SDS011;1508;48.744;9.110;2023-02-18T03:31:09;479.10;;;445.52;;
2996;SDS011;1508;48.744;9.110;2023-02-18T03:34:06;152.48;;;141.77;;
2996;SDS011;1508;48.744;9.110;2023-02-18T03:36:57;186.75;;;174.10;;
2996;SDS011;1508;48.744;9.110;2023-02-18T03:39:45;275.60;;;258.52;;
2996;SDS011;1508;48.744;9.110;2023-02-18T03:42:35;135.65;;;125.28;;
2996;SDS011;1508;48.744;9.110;2023-02-18T03:45:21;193.77;;;180.57;;
2996;SDS011;1508;48.744;9.110;2023-02-18T03:48:07;159.05;;;147.80;;
2996;SDS011;1508;48.744;9.110;2023-02-18T03:50:53;197.90;;;185.63;;
2996;SDS011;1508;48.744;9.110;2023-02-18T03:53:39;152.68;;;141.93;;
2996;SDS011;1508;48.744;9.110;2023-02-18T03:56:24;273.60;;;257.77;;
2996;SDS011;1508;48.744;9.110;2023-02-18T03:59:10;231.70;;;217.23;;
2996;SDS011;1508;48.744;9.110;2023-02-18T04:01:57;198.13;;;185.13;;
2996;SDS011;1508;48.744;9.110;2023-02-18T04:04:43;208.30;;;195.48;;
2996;SDS011;1508;48.744;9.110;2023-02-18T04:07:28;163.95;;;152.73;;
2996;SDS011;1508;48.744;9.110;2023-02-18T04:10:14;189.07;;;176.43;;
2996;SDS011;1508;48.744;9.110;2023-02-18T04:13:00;191.73;;;179.35;;
2996;SDS011;1508;48.744;9.110;2023-02-18T04:15:49;213.27;;;200.25;;
2996;SDS011;1508;48.744;9.110;2023-02-18T04:18:36;193.40;;;181.63;;
2996;SDS011;1508;48.744;9.110;2023-02-18T04:21:22;79.88;;;71.95;;
2996;SDS011;1508;48.744;9.110;2023-02-18T04:24:07;156.10;;;145.30;;
2996;SDS011;1508;48.744;9.110;2023-02-18T04:26:53;161.45;;;150.48;;
2996;SDS011;1508;48.744;9.110;2023-02-18T04:29:39;90.13;;;80.72;;
2996;SDS011;1508;48.744;9.110;2023-02-18T04:32:25;83.35;;;75.10;;
2996;SDS011;1508;48.744;9.110;2023-02-18T04:35:11;182.07;;;168.38;;
2996;SDS011;1508;48.744;9.110;2023-02-18T04:37:57;110.53;;;101.57;;
2996;SDS011;1508;48.744;9.110;2023-02-18T04:40:42;121.82;;;112.28;;
2996;SDS011;1508;48.744;9.110;2023-02-18T04:43:28;98.35;;;89.40;;
2996;SDS011;1508;48.744;9.110;2023-02-18T04:46:14;144.95;;;134.85;;
2996;SDS011;1508;48.744;9.110;2023-02-18T04:49:00;215.05;;;202.07;;
2996;SDS011;1508;48.744;9.110;2023-02-18T04:51:46;106.20;;;97.33;;
2996;SDS011;1508;48.744;9.110;2023-02-18T04:54:31;90.82;;;82.38;;
2996;SDS011;1508;48.744;9.110;2023-02-18T04:57:17;120.82;;;110.95;;
2996;SDS011;1508;48.744;9.110;2023-02-18T05:00:04;103.57;;;94.75;;
2996;SDS011;1508;48.744;9.110;2023-02-18T05:02:52;105.38;;;96.35;;
2996;SDS011;1508;48.744;9.110;2023-02-18T05:05:38;125.63;;;115.00;;
2996;SDS011;1508;48.744;9.110;2023-02-18T05:08:24;121.78;;;111.55;;
2996;SDS011;1508;48.744;9.110;2023-02-18T05:11:10;146.23;;;135.73;;
2996;SDS011;1508;48.744;9.110;2023-02-18T05:13:56;140.30;;;129.43;;
2996;SDS011;1508;48.744;9.110;2023-02-18T05:16:42;130.02;;;120.15;;
2996;SDS011;1508;48.744;9.110;2023-02-18T05:19:27;297.30;;;280.17;;
2996;SDS011;1508;48.744;9.110;2023-02-18T05:22:13;314.17;;;296.73;;
2996;SDS011;1508;48.744;9.110;2023-02-18T05:24:59;340.48;;;322.23;;
2996;SDS011;1508;48.744;9.110;2023-02-18T05:27:45;316.27;;;298.83;;
2996;SDS011;1508;48.744;9.110;2023-02-18T05:30:31;234.98;;;220.50;;
2996;SDS011;1508;48.744;9.110;2023-02-18T05:33:17;101.43;;;92.32;;
2996;SDS011;1508;48.744;9.110;2023-02-18T05:36:03;69.65;;;60.60;;
2996;SDS011;1508;48.744;9.110;2023-02-18T05:38:49;510.35;;;473.25;;
2996;SDS011;1508;48.744;9.110;2023-02-18T05:41:35;202.73;;;189.98;;
2996;SDS011;1508;48.744;9.110;2023-02-18T05:44:20;523.17;;;482.63;;
2996;SDS011;1508;48.744;9.110;2023-02-18T05:47:08;98.65;;;90.25;;
2996;SDS011;1508;48.744;9.110;2023-02-18T05:49:56;149.50;;;138.13;;
2996;SDS011;1508;48.744;9.110;2023-02-18T05:52:42;103.72;;;95.28;;
2996;SDS011;1508;48.744;9.110;2023-02-18T05:55:28;111.50;;;102.53;;
2996;SDS011;1508;48.744;9.110;2023-02-18T05:58:14;162.13;;;148.95;;
2996;SDS011;1508;48.744;9.110;2023-02-18T06:00:59;97.68;;;89.03;;
2996;SDS011;1508;48.744;9.110;2023-02-18T06:03:45;165.68;;;152.00;;
2996;SDS011;1508;48.744;9.110;2023-02-18T06:06:31;102.53;;;93.35;;
2996;SDS011;1508;48.744;9.110;2023-02-18T06:09:17;154.40;;;142.43;;
2996;SDS011;1508;48.744;9.110;2023-02-18T06:12:05;232.07;;;212.68;;
2996;SDS011;1508;48.744;9.110;2023-02-18T06:14:51;143.95;;;133.77;;
2996;SDS011;1508;48.744;9.110;2023-02-18T06:17:37;354.73;;;329.30;;
2996;SDS011;1508;48.744;9.110;2023-02-18T06:20:23;103.43;;;94.75;;
2996;SDS011;1508;48.744;9.110;2023-02-18T06:23:09;275.92;;;259.08;;
2996;SDS011;1508;48.744;9.110;2023-02-18T06:25:55;147.18;;;137.23;;
2996;SDS011;1508;48.744;9.110;2023-02-18T06:28:40;181.25;;;169.35;;
2996;SDS011;1508;48.744;9.110;2023-02-18T06:31:26;207.05;;;190.43;;
2996;SDS011;1508;48.744;9.110;2023-02-18T06:34:12;78.97;;;71.22;;
2996;SDS011;1508;48.744;9.110;2023-02-18T06:36:58;73.05;;;65.05;;
2996;SDS011;1508;48.744;9.110;2023-02-18T06:39:44;147.73;;;136.63;;
2996;SDS011;1508;48.744;9.110;2023-02-18T06:42:30;201.65;;;189.20;;
2996;SDS011;1508;48.744;9.110;2023-02-18T06:45:15;177.50;;;166.37;;
2996;SDS011;1508;48.744;9.110;2023-02-18T06:48:01;167.88;;;155.85;;
2996;SDS011;1508;48.744;9.110;2023-02-18T06:50:47;192.98;;;181.13;;
2996;SDS011;1508;48.744;9.110;2023-02-18T06:53:33;84.17;;;75.97;;
2996;SDS011;1508;48.744;9.110;2023-02-18T06:56:19;169.20;;;157.98;;
2996;SDS011;1508;48.744;9.110;2023-02-18T06:59:05;231.68;;;216.00;;
2996;SDS011;1508;48.744;9.110;2023-02-18T07:01:51;132.73;;;122.60;;
2996;SDS011;1508;48.744;9.110;2023-02-18T07:04:37;100.83;;;91.93;;
2996;SDS011;1508;48.744;9.110;2023-02-18T07:07:23;286.65;;;265.70;;
2996;SDS011;1508;48.744;9.110;2023-02-18T07:10:09;151.32;;;140.45;;
2996;SDS011;1508;48.744;9.110;2023-02-18T07:12:55;102.40;;;93.22;;
2996;SDS011;1508;48.744;9.110;2023-02-18T07:15:41;188.82;;;175.50;;
2996;SDS011;1508;48.744;9.110;2023-02-18T07:18:27;95.50;;;86.60;;
2996;SDS011;1508;48.744;9.110;2023-02-18T07:21:13;103.93;;;95.05;;
2996;SDS011;1508;48.744;9.110;2023-02-18T07:23:58;383.20;;;354.58;;
2996;SDS011;1508;48.744;9.110;2023-02-18T07:26:44;86.53;;;78.13;;
2996;SDS011;1508;48.744;9.110;2023-02-18T07:29:30;234.15;;;218.35;;
2996;SDS011;1508;48.744;9.110;2023-02-18T07:32:17;284.10;;;263.87;;
2996;SDS011;1508;48.744;9.110;2023-02-18T07:35:04;86.38;;;78.05;;
2996;SDS011;1508;48.744;9.110;2023-02-18T07:37:50;94.70;;;86.05;;
2996;SDS011;1508;48.744;9.110;2023-02-18T07:40:36;166.90;;;155.70;;
2996;SDS011;1508;48.744;9.110;2023-02-18T07:43:22;168.23;;;156.23;;
2996;SDS011;1508;48.744;9.110;2023-02-18T07:46:08;153.20;;;141.73;;
2996;SDS011;1508;48.744;9.110;2023-02-18T07:48:55;375.03;;;349.37;;
2996;SDS011;1508;48.744;9.110;2023-02-18T07:51:41;184.82;;;173.13;;
2996;SDS011;1508;48.744;9.110;2023-02-18T07:54:27;128.43;;;118.70;;
2996;SDS011;1508;48.744;9.110;2023-02-18T07:57:13;190.48;;;178.43;;
2996;SDS011;1508;48.744;9.110;2023-02-18T07:59:59;183.93;;;170.18;;
2996;SDS011;1508;48.744;9.110;2023-02-18T08:02:44;96.60;;;88.10;;
2996;SDS011;1508;48.744;9.110;2023-02-18T08:05:30;108.50;;;99.47;;
2996;SDS011;1508;48.744;9.110;2023-02-18T08:08:18;112.78;;;103.10;;
2996;SDS011;1508;48.744;9.110;2023-02-18T08:11:06;106.83;;;97.80;;
2996;SDS011;1508;48.744;9.110;2023-02-18T08:13:51;177.73;;;165.00;;
2996;SDS011;1508;48.744;9.110;2023-02-18T08:16:37;146.00;;;134.85;;
2996;SDS011;1508;48.744;9.110;2023-02-18T08:19:23;220.73;;;204.88;;
2996;SDS011;1508;48.744;9.110;2023-02-18T08:22:09;269.35;;;247.40;;
2996;SDS011;1508;48.744;9.110;2023-02-18T08:24:55;313.93;;;293.43;;
2996;SDS011;1508;48.744;9.110;2023-02-18T08:27:41;238.82;;;223.88;;
2996;SDS011;1508;48.744;9.110;2023-02-18T08:30:27;306.27;;;280.52;;
2996;SDS011;1508;48.744;9.110;2023-02-18T08:33:13;306.73;;;288.67;;
2996;SDS011;1508;48.744;9.110;2023-02-18T08:35:59;248.57;;;233.85;;
2996;SDS011;1508;48.744;9.110;2023-02-18T08:38:45;195.50;;;181.65;;
2996;SDS011;1508;48.744;9.110;2023-02-18T08:41:31;277.25;;;258.80;;
2996;SDS011;1508;48.744;9.110;2023-02-18T08:44:16;206.23;;;192.82;;
2996;SDS011;1508;48.744;9.110;2023-02-18T08:47:02;427.52;;;394.10;;
2996;SDS011;1508;48.744;9.110;2023-02-18T08:49:48;266.40;;;246.75;;
2996;SDS011;1508;48.744;9.110;2023-02-18T08:52:34;517.70;;;476.80;;
2996;SDS011;1508;48.744;9.110;2023-02-18T08:55:20;283.27;;;266.30;;
2996;SDS011;1508;48.744;9.110;2023-02-18T08:58:06;232.82;;;216.07;;
2996;SDS011;1508;48.744;9.110;2023-02-18T09:00:52;229.73;;;215.40;;
2996;SDS011;1508;48.744;9.110;2023-02-18T09:03:38;200.10;;;186.27;;
2996;SDS011;1508;48.744;9.110;2023-02-18T09:06:24;366.60;;;338.23;;
2996;SDS011;1508;48.744;9.110;2023-02-18T09:09:10;163.48;;;151.55;;
2996;SDS011;1508;48.744;9.110;2023-02-18T09:11:56;242.55;;;226.80;;
2996;SDS011;1508;48.744;9.110;2023-02-18T09:14:42;430.95;;;394.95;;
2996;SDS011;1508;48.744;9.110;2023-02-18T09:17:31;257.25;;;237.60;;
2996;SDS011;1508;48.744;9.110;2023-02-18T09:20:17;366.63;;;337.80;;
2996;SDS011;1508;48.744;9.110;2023-02-18T09:23:03;172.65;;;159.73;;
2996;SDS011;1508;48.744;9.110;2023-02-18T09:25:49;342.15;;;318.60;;
2996;SDS011;1508;48.744;9.110;2023-02-18T09:28:35;434.17;;;398.88;;
2996;SDS011;1508;48.744;9.110;2023-02-18T09:31:22;163.18;;;150.50;;
2996;SDS011;1508;48.744;9.110;2023-02-18T09:34:10;1133.57;;;988.55;;
2996;SDS011;1508;48.744;9.110;2023-02-18T09:36:56;396.40;;;368.00;;
2996;SDS011;1508;48.744;9.110;2023-02-18T09:39:43;368.00;;;339.55;;
2996;SDS011;1508;48.744;9.110;2023-02-18T09:42:30;1020.08;;;916.63;;
2996;SDS011;1508;48.744;9.110;2023-02-18T09:45:18;167.75;;;155.25;;
2996;SDS011;1508;48.744;9.110;2023-02-18T09:48:04;415.52;;;383.17;;
2996;SDS011;1508;48.744;9.110;2023-02-18T09:50:50;376.98;;;346.58;;
2996;SDS011;1508;48.744;9.110;2023-02-18T09:53:37;1287.22;;;999.90;;
2996;SDS011;1508;48.744;9.110;2023-02-18T09:56:27;349.33;;;327.15;;
2996;SDS011;1508;48.744;9.110;2023-02-18T09:59:19;264.20;;;243.40;;
2996;SDS011;1508;48.744;9.110;2023-02-18T10:02:08;235.65;;;217.32;;
2996;SDS011;1508;48.744;9.110;2023-02-18T10:04:58;880.92;;;792.03;;
2996;SDS011;1508;48.744;9.110;2023-02-18T10:07:44;391.13;;;361.40;;
2996;SDS011;1508;48.744;9.110;2023-02-18T10:10:43;334.07;;;307.87;;
2996;SDS011;1508;48.744;9.110;2023-02-18T10:13:32;267.27;;;248.73;;
2996;SDS011;1508;48.744;9.110;2023-02-18T10:16:18;1157.35;;;999.90;;
2996;SDS011;1508;48.744;9.110;2023-02-18T10:20:06;511.13;;;464.23;;
2996;SDS011;1508;48.744;9.110;2023-02-18T10:22:23;789.40;;;722.03;;
2996;SDS011;1508;48.744;9.110;2023-02-18T10:25:11;579.05;;;527.88;;
2996;SDS011;1508;48.744;9.110;2023-02-18T10:28:03;231.25;;;216.05;;
2996;SDS011;1508;48.744;9.110;2023-02-18T10:30:51;391.15;;;362.52;;
2996;SDS011;1508;48.744;9.110;2023-02-18T10:33:46;771.78;;;699.58;;
2996;SDS011;1508;48.744;9.110;2023-02-18T10:36:36;922.35;;;831.55;;
2996;SDS011;1508;48.744;9.110;2023-02-18T10:39:33;951.75;;;846.47;;
2996;SDS011;1508;48.744;9.110;2023-02-18T10:45:45;1472.72;;;988.90;;
2996;SDS011;1508;48.744;9.110;2023-02-18T10:52:22;1999.90;;;999.90;;
2996;SDS011;1508;48.744;9.110;2023-02-18T10:55:12;1999.90;;;999.90;;
2996;SDS011;1508;48.744;9.110;2023-02-18T10:57:59;1746.07;;;999.90;;
2996;SDS011;1508;48.744;9.110;2023-02-18T11:00:45;1006.80;;;907.93;;
2996;SDS011;1508;48.744;9.110;2023-02-18T11:03:44;1620.38;;;999.90;;
2996;SDS011;1508;48.744;9.110;2023-02-18T11:06:39;1999.90;;;999.90;;
2996;SDS011;1508;48.744;9.110;2023-02-18T11:12:45;1351.45;;;954.13;;
2996;SDS011;1508;48.744;9.110;2023-02-18T11:15:34;1429.90;;;987.97;;
2996;SDS011;1508;48.744;9.110;2023-02-18T11:21:29;872.25;;;790.00;;
2996;SDS011;1508;48.744;9.110;2023-02-18T11:24:16;980.90;;;881.47;;
2996;SDS011;1508;48.744;9.110;2023-02-18T11:27:07;1999.90;;;999.90;;
2996;SDS011;1508;48.744;9.110;2023-02-18T11:30:06;1672.32;;;999.90;;
2996;SDS011;1508;48.744;9.110;2023-02-18T11:39:25;1663.88;;;999.90;;
2996;SDS011;1508;48.744;9.110;2023-02-18T11:42:12;954.97;;;857.33;;
2996;SDS011;1508;48.744;9.110;2023-02-18T11:45:00;1999.90;;;999.90;;
2996;SDS011;1508;48.744;9.110;2023-02-18T11:47:46;810.22;;;687.58;;
2996;SDS011;1508;48.744;9.110;2023-02-18T11:50:45;1505.03;;;999.90;;
2996;SDS011;1508;48.744;9.110;2023-02-18T11:53:37;704.97;;;648.60;;
2996;SDS011;1508;48.744;9.110;2023-02-18T11:56:23;1076.65;;;950.08;;
2996;SDS011;1508;48.744;9.110;2023-02-18T11:59:08;694.05;;;643.03;;
2996;SDS011;1508;48.744;9.110;2023-02-18T12:01:57;880.20;;;793.47;;
2996;SDS011;1508;48.744;9.110;2023-02-18T12:04:54;1689.90;;;999.90;;
2996;SDS011;1508;48.744;9.110;2023-02-18T12:08:02;1898.50;;;999.90;;
2996;SDS011;1508;48.744;9.110;2023-02-18T12:11:05;1085.50;;;927.28;;
2996;SDS011;1508;48.744;9.110;2023-02-18T12:13:57;813.72;;;744.20;;
2996;SDS011;1508;48.744;9.110;2023-02-18T12:20:24;1679.68;;;999.90;;
2996;SDS011;1508;48.744;9.110;2023-02-18T12:23:15;1999.90;;;999.90;;
2996;SDS011;1508;48.744;9.110;2023-02-18T12:30:18;1690.00;;;999.90;;
2996;SDS011;1508;48.744;9.110;2023-02-18T12:36:18;1793.82;;;999.90;;
2996;SDS011;1508;48.744;9.110;2023-02-18T12:42:44;1999.90;;;999.90;;
2996;SDS011;1508;48.744;9.110;2023-02-18T12:52:08;1999.90;;;999.90;;
2996;SDS011;1508;48.744;9.110;2023-02-18T12:58:14;1999.90;;;999.90;;
2996;SDS011;1508;48.744;9.110;2023-02-18T13:01:23;1939.15;;;999.90;;
2996;SDS011;1508;48.744;9.110;2023-02-18T13:11:12;1975.28;;;999.90;;
2996;SDS011;1508;48.744;9.110;2023-02-18T13:14:19;1989.77;;;999.90;;
2996;SDS011;1508;48.744;9.110;2023-02-18T13:17:08;1999.90;;;999.90;;
2996;SDS011;1508;48.744;9.110;2023-02-18T13:19:58;1375.30;;;996.55;;
2996;SDS011;1508;48.744;9.110;2023-02-18T13:23:04;885.00;;;797.03;;
2996;SDS011;1508;48.744;9.110;2023-02-18T13:25:55;1988.90;;;999.90;;
2996;SDS011;1508;48.744;9.110;2023-02-18T13:28:48;1832.18;;;999.90;;
2996;SDS011;1508;48.744;9.110;2023-02-18T13:35:02;1999.90;;;999.90;;
2996;SDS011;1508;48.744;9.110;2023-02-18T13:40:42;1999.90;;;999.90;;
2996;SDS011;1508;48.744;9.110;2023-02-18T13:43:30;1999.90;;;999.90;;
2996;SDS011;1508;48.744;9.110;2023-02-18T13:46:23;1999.90;;;999.90;;
2996;SDS011;1508;48.744;9.110;2023-02-18T13:49:10;1290.00;;;893.30;;
2996;SDS011;1508;48.744;9.110;2023-02-18T13:51:57;1672.93;;;999.90;;
2996;SDS011;1508;48.744;9.110;2023-02-18T13:54:45;1999.90;;;999.90;;
2996;SDS011;1508;48.744;9.110;2023-02-18T13:57:32;1999.90;;;999.90;;
2996;SDS011;1508;48.744;9.110;2023-02-18T14:00:24;1999.90;;;999.90;;
2996;SDS011;1508;48.744;9.110;2023-02-18T14:24:42;1999.90;;;999.90;;
2996;SDS011;1508;48.744;9.110;2023-02-18T14:27:32;1999.90;;;999.90;;
2996;SDS011;1508;48.744;9.110;2023-02-18T14:30:23;623.80;;;556.17;;
2996;SDS011;1508;48.744;9.110;2023-02-18T14:33:14;878.70;;;742.70;;
2996;SDS011;1508;48.744;9.110;2023-02-18T14:51:33;1707.78;;;999.90;;
2996;SDS011;1508;48.744;9.110;2023-02-18T14:54:20;1350.82;;;946.08;;
2996;SDS011;1508;48.744;9.110;2023-02-18T14:57:12;1999.90;;;999.90;;
2996;SDS011;1508;48.744;9.110;2023-02-18T15:00:05;1413.55;;;893.67;;
2996;SDS011;1508;48.744;9.110;2023-02-18T15:02:59;1154.15;;;808.90;;
2996;SDS011;1508;48.744;9.110;2023-02-18T15:05:45;750.67;;;691.55;;
2996;SDS011;1508;48.744;9.110;2023-02-18T15:08:35;939.08;;;822.35;;
2996;SDS011;1508;48.744;9.110;2023-02-18T15:11:24;1262.72;;;836.83;;
2996;SDS011;1508;48.744;9.110;2023-02-18T15:14:26;1999.90;;;999.90;;
2996;SDS011;1508;48.744;9.110;2023-02-18T15:17:17;1267.65;;;906.75;;
2996;SDS011;1508;48.744;9.110;2023-02-18T15:20:06;846.92;;;712.25;;
2996;SDS011;1508;48.744;9.110;2023-02-18T15:22:52;244.32;;;227.48;;
2996;SDS011;1508;48.744;9.110;2023-02-18T15:25:39;1234.40;;;856.05;;
2996;SDS011;1508;48.744;9.110;2023-02-18T15:28:26;442.70;;;409.70;;
2996;SDS011;1508;48.744;9.110;2023-02-18T15:31:14;1218.45;;;918.28;;
2996;SDS011;1508;48.744;9.110;2023-02-18T15:33:59;1574.27;;;999.90;;
2996;SDS011;1508;48.744;9.110;2023-02-18T15:36:51;769.67;;;665.38;;
2996;SDS011;1508;48.744;9.110;2023-02-18T15:39:38;1787.43;;;999.90;;
2996;SDS011;1508;48.744;9.110;2023-02-18T15:42:25;1999.90;;;999.90;;
2996;SDS011;1508;48.744;9.110;2023-02-18T15:47:57;1965.03;;;999.90;;
2996;SDS011;1508;48.744;9.110;2023-02-18T15:50:47;1999.90;;;999.90;;
2996;SDS011;1508;48.744;9.110;2023-02-18T15:53:37;1071.53;;;837.30;;
2996;SDS011;1508;48.744;9.110;2023-02-18T15:56:28;820.25;;;736.97;;
2996;SDS011;1508;48.744;9.110;2023-02-18T15:59:20;1797.20;;;999.90;;
2996;SDS011;1508;48.744;9.110;2023-02-18T16:02:18;1999.90;;;999.90;;
2996;SDS011;1508;48.744;9.110;2023-02-18T16:05:11;1413.68;;;997.85;;
2996;SDS011;1508;48.744;9.110;2023-02-18T16:07:59;1999.90;;;999.90;;
2996;SDS011;1508;48.744;9.110;2023-02-18T16:10:56;1999.90;;;999.90;;
2996;SDS011;1508;48.744;9.110;2023-02-18T16:13:50;1917.43;;;992.22;;
2996;SDS011;1508;48.744;9.110;2023-02-18T16:16:36;1844.90;;;995.42;;
2996;SDS011;1508;48.744;9.110;2023-02-18T16:19:22;1999.90;;;999.90;;
2996;SDS011;1508;48.744;9.110;2023-02-18T16:25:24;1372.75;;;930.30;;
2996;SDS011;1508;48.744;9.110;2023-02-18T16:28:13;1419.72;;;978.40;;
2996;SDS011;1508;48.744;9.110;2023-02-18T16:31:01;1843.47;;;999.90;;
2996;SDS011;1508;48.744;9.110;2023-02-18T16:33:47;1575.30;;;943.47;;
2996;SDS011;1508;48.744;9.110;2023-02-18T16:36:33;1041.07;;;893.85;;
2996;SDS011;1508;48.744;9.110;2023-02-18T16:39:19;1035.20;;;809.07;;
2996;SDS011;1508;48.744;9.110;2023-02-18T16:42:09;706.63;;;645.55;;
2996;SDS011;1508;48.744;9.110;2023-02-18T16:44:56;1452.72;;;961.75;;
2996;SDS011;1508;48.744;9.110;2023-02-18T16:47:43;803.92;;;721.83;;
2996;SDS011;1508;48.744;9.110;2023-02-18T16:50:31;917.70;;;827.30;;
2996;SDS011;1508;48.744;9.110;2023-02-18T16:53:18;1229.60;;;963.17;;
2996;SDS011;1508;48.744;9.110;2023-02-18T16:56:04;867.88;;;776.47;;
2996;SDS011;1508;48.744;9.110;2023-02-18T16:58:51;613.40;;;567.63;;
2996;SDS011;1508;48.744;9.110;2023-02-18T17:01:38;1018.30;;;907.90;;
2996;SDS011;1508;48.744;9.110;2023-02-18T17:04:26;606.38;;;556.78;;
2996;SDS011;1508;48.744;9.110;2023-02-18T17:07:12;1999.90;;;999.90;;
2996;SDS011;1508;48.744;9.110;2023-02-18T17:09:58;566.80;;;528.42;;
2996;SDS011;1508;48.744;9.110;2023-02-18T17:12:44;801.13;;;725.93;;
2996;SDS011;1508;48.744;9.110;2023-02-18T17:15:31;1999.90;;;999.90;;
2996;SDS011;1508;48.744;9.110;2023-02-18T17:18:19;804.35;;;728.97;;
2996;SDS011;1508;48.744;9.110;2023-02-18T17:21:07;658.00;;;612.45;;
2996;SDS011;1508;48.744;9.110;2023-02-18T17:23:58;671.75;;;615.90;;
2996;SDS011;1508;48.744;9.110;2023-02-18T17:26:44;1056.22;;;914.10;;
2996;SDS011;1508;48.744;9.110;2023-02-18T17:29:30;1075.72;;;921.88;;
2996;SDS011;1508;48.744;9.110;2023-02-18T17:32:16;1441.90;;;985.13;;
2996;SDS011;1508;48.744;9.110;2023-02-18T17:35:02;755.30;;;683.28;;
2996;SDS011;1508;48.744;9.110;2023-02-18T17:37:48;1005.00;;;838.97;;
2996;SDS011;1508;48.744;9.110;2023-02-18T17:40:34;1249.35;;;975.65;;
2996;SDS011;1508;48.744;9.110;2023-02-18T17:43:20;811.85;;;740.17;;
2996;SDS011;1508;48.744;9.110;2023-02-18T17:46:10;1725.00;;;999.90;;
2996;SDS011;1508;48.744;9.110;2023-02-18T17:48:58;981.67;;;865.03;;
2996;SDS011;1508;48.744;9.110;2023-02-18T17:51:43;1819.78;;;999.90;;
2996;SDS011;1508;48.744;9.110;2023-02-18T17:54:29;1846.45;;;999.90;;
2996;SDS011;1508;48.744;9.110;2023-02-18T17:57:15;898.85;;;814.45;;
2996;SDS011;1508;48.744;9.110;2023-02-18T18:00:01;795.63;;;729.38;;
2996;SDS011;1508;48.744;9.110;2023-02-18T18:02:47;771.93;;;705.97;;
2996;SDS011;1508;48.744;9.110;2023-02-18T18:05:35;1023.33;;;886.25;;
2996;SDS011;1508;48.744;9.110;2023-02-18T18:08:22;1397.95;;;986.30;;
2996;SDS011;1508;48.744;9.110;2023-02-18T18:11:12;752.97;;;686.53;;
2996;SDS011;1508;48.744;9.110;2023-02-18T18:14:02;1972.55;;;999.90;;
2996;SDS011;1508;48.744;9.110;2023-02-18T18:16:48;699.22;;;528.67;;
2996;SDS011;1508;48.744;9.110;2023-02-18T18:19:34;1548.23;;;978.77;;
2996;SDS011;1508;48.744;9.110;2023-02-18T18:22:20;1999.90;;;999.90;;
2996;SDS011;1508;48.744;9.110;2023-02-18T18:25:19;1275.07;;;999.90;;
2996;SDS011;1508;48.744;9.110;2023-02-18T18:28:08;910.93;;;843.83;;
2996;SDS011;1508;48.744;9.110;2023-02-18T18:30:54;1967.05;;;999.90;;
2996;SDS011;1508;48.744;9.110;2023-02-18T18:33:41;1543.90;;;999.90;;
2996;SDS011;1508;48.744;9.110;2023-02-18T18:36:27;1999.90;;;999.90;;
2996;SDS011;1508;48.744;9.110;2023-02-18T18:39:13;1526.18;;;964.60;;
2996;SDS011;1508;48.744;9.110;2023-02-18T18:41:58;1022.38;;;922.28;;
2996;SDS011;1508;48.744;9.110;2023-02-18T18:44:44;1035.03;;;935.03;;